Time,TemperatureF,DewpointF,PressureIn,WindDirection,WindDirectionDegrees,WindSpeedMPH,WindSpeedGustMPH,Humidity,HourlyPrecipIn,Conditions,Clouds,dailyrainin,SoftwareType,DateUTC
2013-07-19 00:01:00,77.7,69.6,30.14,West,265,0.0,0.0,76,0.00,CLR,SCT,0.00,WeatherDisplay:10.37,2013-07-19 04:01:00,
2013-07-19 00:06:00,77.5,69.8,30.14,West,265,0.0,0.0,77,0.00,CLR,SCT,0.00,WeatherDisplay:10.37,2013-07-19 04:06:00,
2013-07-19 00:11:00,77.5,70.5,30.14,West,265,0.0,0.0,79,0.00,CLR,SCT,0.00,WeatherDisplay:10.37,2013-07-19 04:11:00,
2013-07-19 00:16:00,77.6,71.0,30.14,West,265,0.0,0.0,80,0.00,CLR,SCT,0.00,WeatherDisplay:10.37,2013-07-19 04:16:00,
2013-07-19 00:21:00,77.6,71.0,30.14,West,265,0.0,0.0,80,0.00,CLR,SCT,0.00,WeatherDisplay:10.37,2013-07-19 04:21:00,
2013-07-19 00:26:00,77.6,71.0,30.14,West,265,0.0,0.0,80,0.00,CLR,SCT,0.00,WeatherDisplay:10.37,2013-07-19 04:26:00,
2013-07-19 00:31:00,77.7,71.1,30.14,West,265,0.0,0.0,80,0.00,CLR,SCT,0.00,WeatherDisplay:10.37,2013-07-19 04:31:00,
2013-07-19 00:36:00,77.7,71.4,30.13,West,265,0.0,0.0,81,0.00,CLR,SCT,0.00,WeatherDisplay:10.37,2013-07-19 04:36:00,
2013-07-19 00:41:00,77.5,71.2,30.13,West,265,0.0,0.0,81,0.00,CLR,SCT,0.00,WeatherDisplay:10.37,2013-07-19 04:41:00,
2013-07-19 00:46:00,77.3,71.4,30.13,West,265,0.0,0.0,82,0.00,CLR,SCT,0.00,WeatherDisplay:10.37,2013-07-19 04:46:00,
2013-07-19 00:51:00,77.2,71.3,30.13,West,265,0.0,0.0,82,0.00,CLR,SCT,0.00,WeatherDisplay:10.37,2013-07-19 04:51:00,
2013-07-19 00:56:00,77.2,71.3,30.13,West,265,0.0,0.0,82,0.00,CLR,SCT,0.00,WeatherDisplay:10.37,2013-07-19 04:56:00,
2013-07-19 01:01:00,77.2,71.7,30.13,West,265,0.0,0.0,83,0.00,CLR,SCT,0.00,WeatherDisplay:10.37,2013-07-19 05:01:00,
2013-07-19 01:06:00,77.1,71.6,30.12,West,265,0.0,0.0,83,0.00,CLR,SCT,0.00,WeatherDisplay:10.37,2013-07-19 05:06:00,
2013-07-19 01:11:00,77.0,71.5,30.12,West,265,0.0,0.0,83,0.00,CLR,SCT,0.00,WeatherDisplay:10.37,2013-07-19 05:11:00,
2013-07-19 01:16:00,76.8,71.6,30.12,West,265,0.0,0.0,84,0.00,CLR,SCT,0.00,WeatherDisplay:10.37,2013-07-19 05:16:00,
2013-07-19 01:21:00,76.7,71.5,30.12,West,265,0.0,0.0,84,0.00,CLR,SCT,0.00,WeatherDisplay:10.37,2013-07-19 05:21:00,
2013-07-19 01:26:00,76.6,71.4,30.12,West,265,0.0,0.0,84,0.00,CLR,SCT,0.00,WeatherDisplay:10.37,2013-07-19 05:26:00,
2013-07-19 01:31:00,76.5,71.3,30.12,West,265,0.0,0.0,84,0.00,CLR,SCT,0.00,WeatherDisplay:10.37,2013-07-19 05:31:00,
2013-07-19 01:36:00,76.3,71.1,30.12,West,265,0.0,0.0,84,0.00,CLR,SCT,0.00,WeatherDisplay:10.37,2013-07-19 05:36:00,
2013-07-19 01:41:00,76.3,71.1,30.12,West,265,0.0,0.0,84,0.00,CLR,SCT,0.00,WeatherDisplay:10.37,2013-07-19 05:41:00,
2013-07-19 01:46:00,76.5,71.3,30.12,West,265,0.0,0.0,84,0.00,CLR,SCT,0.00,WeatherDisplay:10.37,2013-07-19 05:46:00,
2013-07-19 01:51:00,76.3,71.1,30.12,West,265,0.0,0.0,84,0.00,CLR,SCT,0.00,WeatherDisplay:10.37,2013-07-19 05:51:00,
2013-07-19 01:56:00,76.1,71.0,30.12,West,265,0.0,0.0,84,0.00,CLR,SCT,0.00,WeatherDisplay:10.37,2013-07-19 05:56:00,
2013-07-19 02:01:00,76.1,71.0,30.12,West,265,0.0,0.0,84,0.00,CLR,SCT,0.00,WeatherDisplay:10.37,2013-07-19 06:01:00,
2013-07-19 02:06:00,76.2,71.4,30.12,West,265,0.0,0.0,85,0.00,CLR,SCT,0.00,WeatherDisplay:10.37,2013-07-19 06:06:00,
2013-07-19 02:11:00,76.2,71.4,30.11,West,265,0.0,0.0,85,0.00,CLR,SCT,0.00,WeatherDisplay:10.37,2013-07-19 06:11:00,
2013-07-19 02:16:00,76.1,71.3,30.11,West,265,0.0,0.0,85,0.00,CLR,SCT,0.00,WeatherDisplay:10.37,2013-07-19 06:16:00,
2013-07-19 02:21:00,76.0,71.2,30.11,West,265,0.0,0.0,85,0.00,CLR,SCT,0.00,WeatherDisplay:10.37,2013-07-19 06:21:00,
2013-07-19 02:26:00,76.1,71.3,30.11,West,265,0.0,0.0,85,0.00,CLR,SCT,0.00,WeatherDisplay:10.37,2013-07-19 06:26:00,
2013-07-19 02:31:00,75.9,71.1,30.11,West,265,0.0,0.0,85,0.00,CLR,SCT,0.00,WeatherDisplay:10.37,2013-07-19 06:31:00,
2013-07-19 02:36:00,75.7,71.3,30.11,West,265,0.0,0.0,86,0.00,CLR,SCT,0.00,WeatherDisplay:10.37,2013-07-19 06:36:00,
2013-07-19 02:41:00,75.7,71.3,30.11,West,265,0.0,0.0,86,0.00,CLR,SCT,0.00,WeatherDisplay:10.37,2013-07-19 06:41:00,
2013-07-19 02:46:00,75.6,71.2,30.11,West,265,0.0,0.0,86,0.00,CLR,SCT,0.00,WeatherDisplay:10.37,2013-07-19 06:46:00,
2013-07-19 02:51:00,75.5,71.1,30.11,West,265,0.0,0.0,86,0.00,CLR,SCT,0.00,WeatherDisplay:10.37,2013-07-19 06:51:00,
2013-07-19 02:56:00,75.5,71.1,30.11,West,265,0.0,0.0,86,0.00,CLR,SCT,0.00,WeatherDisplay:10.37,2013-07-19 06:56:00,
2013-07-19 03:01:00,75.5,71.1,30.11,West,265,0.0,0.0,86,0.00,CLR,SCT,0.00,WeatherDisplay:10.37,2013-07-19 07:01:00,
2013-07-19 03:06:00,75.3,70.9,30.11,West,265,0.0,0.0,86,0.00,CLR,SCT,0.00,WeatherDisplay:10.37,2013-07-19 07:06:00,
2013-07-19 03:11:00,75.2,70.8,30.10,West,265,0.0,0.0,86,0.00,CLR,SCT,0.00,WeatherDisplay:10.37,2013-07-19 07:11:00,
2013-07-19 03:16:00,75.1,70.7,30.10,West,265,0.0,0.0,86,0.00,CLR,SCT,0.00,WeatherDisplay:10.37,2013-07-19 07:16:00,
2013-07-19 03:21:00,75.0,70.6,30.10,West,265,0.0,0.0,86,0.00,CLR,SCT,0.00,WeatherDisplay:10.37,2013-07-19 07:21:00,
2013-07-19 03:26:00,74.9,70.5,30.10,West,265,0.0,0.0,86,0.00,CLR,SCT,0.00,WeatherDisplay:10.37,2013-07-19 07:26:00,
2013-07-19 03:31:00,74.9,70.5,30.10,West,265,0.0,0.0,86,0.00,CLR,SCT,0.00,WeatherDisplay:10.37,2013-07-19 07:31:00,
2013-07-19 03:36:00,74.7,70.3,30.10,West,265,0.0,0.0,86,0.00,CLR,SCT,0.00,WeatherDisplay:10.37,2013-07-19 07:36:00,
2013-07-19 03:41:00,74.5,70.4,30.10,West,265,0.0,0.0,87,0.00,CLR,SCT,0.00,WeatherDisplay:10.37,2013-07-19 07:41:00,
2013-07-19 03:46:00,74.5,70.4,30.10,West,265,0.0,0.0,87,0.00,CLR,SCT,0.00,WeatherDisplay:10.37,2013-07-19 07:46:00,
2013-07-19 03:51:00,74.1,70.0,30.10,West,265,0.0,0.0,87,0.00,CLR,SCT,0.00,WeatherDisplay:10.37,2013-07-19 07:51:00,
2013-07-19 03:56:00,74.1,70.0,30.10,West,265,0.0,0.0,87,0.00,CLR,SCT,0.00,WeatherDisplay:10.37,2013-07-19 07:56:00,
2013-07-19 04:01:00,74.1,70.0,30.10,West,265,0.0,0.0,87,0.00,CLR,SCT,0.00,WeatherDisplay:10.37,2013-07-19 08:01:00,
2013-07-19 04:06:00,74.1,70.0,30.10,West,265,0.0,0.0,87,0.00,CLR,SCT,0.00,WeatherDisplay:10.37,2013-07-19 08:06:00,
2013-07-19 04:11:00,74.0,69.9,30.10,West,265,0.0,0.0,87,0.00,CLR,SCT,0.00,WeatherDisplay:10.37,2013-07-19 08:11:00,
2013-07-19 04:16:00,73.9,69.8,30.10,West,265,0.0,0.0,87,0.00,CLR,SCT,0.00,WeatherDisplay:10.37,2013-07-19 08:16:00,
2013-07-19 04:21:00,73.9,69.8,30.10,West,265,0.0,0.0,87,0.00,CLR,SCT,0.00,WeatherDisplay:10.37,2013-07-19 08:21:00,
2013-07-19 04:26:00,73.9,69.8,30.10,East,86,2.3,2.3,87,0.00,CLR,SCT,0.00,WeatherDisplay:10.37,2013-07-19 08:26:00,
2013-07-19 04:31:00,73.9,69.8,30.10,ENE,75,0.0,0.0,87,0.00,CLR,SCT,0.00,WeatherDisplay:10.37,2013-07-19 08:31:00,
2013-07-19 04:37:00,73.8,69.7,30.10,East,85,0.0,0.0,87,0.00,CLR,SCT,0.00,WeatherDisplay:10.37,2013-07-19 08:37:00,
2013-07-19 04:42:00,73.8,69.7,30.10,East,85,0.0,0.0,87,0.00,CLR,SCT,0.00,WeatherDisplay:10.37,2013-07-19 08:42:00,
2013-07-19 04:47:00,73.6,69.5,30.10,ENE,71,1.9,2.3,87,0.00,CLR,SCT,0.00,WeatherDisplay:10.37,2013-07-19 08:47:00,
2013-07-19 04:52:00,73.6,69.5,30.10,ENE,78,0.0,0.0,87,0.00,CLR,SCT,0.00,WeatherDisplay:10.37,2013-07-19 08:52:00,
2013-07-19 04:57:00,73.5,69.4,30.09,East,85,2.3,2.3,87,0.00,CLR,SCT,0.00,WeatherDisplay:10.37,2013-07-19 08:57:00,
2013-07-19 05:02:00,73.4,69.3,30.09,ENE,68,0.0,0.0,87,0.00,CLR,SCT,0.00,WeatherDisplay:10.37,2013-07-19 09:02:00,
2013-07-19 05:07:00,73.4,69.3,30.10,East,86,1.1,0.0,87,0.00,CLR,SCT,0.00,WeatherDisplay:10.37,2013-07-19 09:07:00,
2013-07-19 05:12:00,73.5,69.4,30.10,East,85,1.2,1.2,87,0.00,CLR,SCT,0.00,WeatherDisplay:10.37,2013-07-19 09:12:00,
2013-07-19 05:17:00,73.4,69.3,30.10,East,92,0.0,0.0,87,0.00,CLR,SCT,0.00,WeatherDisplay:10.37,2013-07-19 09:17:00,
2013-07-19 05:22:00,73.2,69.1,30.10,ENE,61,2.3,2.3,87,0.00,CLR,SCT,0.00,WeatherDisplay:10.37,2013-07-19 09:22:00,
2013-07-19 05:27:00,73.1,69.4,30.09,ENE,73,0.0,0.0,88,0.00,CLR,SCT,0.00,WeatherDisplay:10.37,2013-07-19 09:27:00,
2013-07-19 05:32:00,73.1,69.4,30.10,ENE,73,0.0,0.0,88,0.00,CLR,SCT,0.00,WeatherDisplay:10.37,2013-07-19 09:32:00,
2013-07-19 05:37:00,73.1,69.4,30.09,ENE,73,0.0,0.0,88,0.00,CLR,SCT,0.00,WeatherDisplay:10.37,2013-07-19 09:37:00,
2013-07-19 05:42:00,73.1,69.4,30.09,ENE,73,0.0,0.0,88,0.00,CLR,SCT,0.00,WeatherDisplay:10.37,2013-07-19 09:42:00,
2013-07-19 05:47:00,73.1,69.4,30.09,ENE,73,0.0,0.0,88,0.00,CLR,SCT,0.00,WeatherDisplay:10.37,2013-07-19 09:47:00,
2013-07-19 05:52:00,73.1,69.4,30.09,ENE,73,0.0,0.0,88,0.00,CLR,SCT,0.00,WeatherDisplay:10.37,2013-07-19 09:52:00,
2013-07-19 05:57:00,73.0,69.3,30.09,ENE,73,0.0,0.0,88,0.00,CLR,SCT,0.00,WeatherDisplay:10.37,2013-07-19 09:57:00,
2013-07-19 06:02:00,73.0,69.3,30.09,ENE,64,0.0,0.0,88,0.00,CLR,SCT,0.00,WeatherDisplay:10.37,2013-07-19 10:02:00,
2013-07-19 06:07:00,72.7,69.0,30.10,ENE,64,0.0,0.0,88,0.00,CLR,SCT,0.00,WeatherDisplay:10.37,2013-07-19 10:07:00,
2013-07-19 06:12:00,72.7,69.0,30.09,ENE,64,0.0,0.0,88,0.00,CLR,SCT,0.00,WeatherDisplay:10.37,2013-07-19 10:12:00,
2013-07-19 06:17:00,72.7,69.0,30.09,ENE,64,0.0,0.0,88,0.00,CLR,SCT,0.00,WeatherDisplay:10.37,2013-07-19 10:17:00,
2013-07-19 06:22:00,72.6,68.9,30.09,South,182,1.1,0.0,88,0.00,CLR,SCT,0.00,WeatherDisplay:10.37,2013-07-19 10:22:00,
2013-07-19 06:27:00,72.3,68.9,30.09,South,182,0.0,0.0,89,0.00,CLR,SCT,0.00,WeatherDisplay:10.37,2013-07-19 10:27:00,
2013-07-19 06:32:00,72.2,68.8,30.09,South,182,0.0,0.0,89,0.00,CLR,SCT,0.00,WeatherDisplay:10.37,2013-07-19 10:32:00,
2013-07-19 06:37:00,72.4,69.0,30.09,South,182,0.0,0.0,89,0.00,CLR,SCT,0.00,WeatherDisplay:10.37,2013-07-19 10:37:00,
2013-07-19 06:42:00,72.5,69.1,30.10,South,182,0.0,0.0,89,0.00,CLR,SCT,0.00,WeatherDisplay:10.37,2013-07-19 10:42:00,
2013-07-19 06:47:00,72.6,69.2,30.10,South,182,0.0,0.0,89,0.00,CLR,SCT,0.00,WeatherDisplay:10.37,2013-07-19 10:47:00,
2013-07-19 06:52:00,72.6,69.2,30.10,ENE,75,0.0,0.0,89,0.00,CLR,SCT,0.00,WeatherDisplay:10.37,2013-07-19 10:52:00,
2013-07-19 06:57:00,72.7,69.3,30.10,ENE,75,0.0,0.0,89,0.00,CLR,SCT,0.00,WeatherDisplay:10.37,2013-07-19 10:57:00,
2013-07-19 07:02:00,72.6,68.9,30.10,ENE,75,0.0,0.0,88,0.00,CLR,SCT,0.00,WeatherDisplay:10.37,2013-07-19 11:02:00,
2013-07-19 07:07:00,72.7,69.3,30.10,ENE,75,0.0,0.0,89,0.00,CLR,SCT,0.00,WeatherDisplay:10.37,2013-07-19 11:07:00,
2013-07-19 07:12:00,72.7,69.3,30.10,ENE,75,0.0,0.0,89,0.00,CLR,SCT,0.00,WeatherDisplay:10.37,2013-07-19 11:12:00,
2013-07-19 07:17:00,72.8,69.4,30.10,ENE,75,0.0,0.0,89,0.00,CLR,SCT,0.00,WeatherDisplay:10.37,2013-07-19 11:17:00,
2013-07-19 07:22:00,72.7,69.3,30.10,ENE,75,0.0,0.0,89,0.00,CLR,SCT,0.00,WeatherDisplay:10.37,2013-07-19 11:22:00,
2013-07-19 07:27:00,72.8,69.4,30.10,ENE,75,0.0,0.0,89,0.00,CLR,SCT,0.00,WeatherDisplay:10.37,2013-07-19 11:27:00,
2013-07-19 07:32:00,73.0,69.6,30.10,ESE,106,1.1,1.1,89,0.00,CLR,SCT,0.00,WeatherDisplay:10.37,2013-07-19 11:32:00,
2013-07-19 07:37:00,73.0,69.6,30.10,NE,54,0.0,0.0,89,0.00,CLR,SCT,0.00,WeatherDisplay:10.37,2013-07-19 11:37:00,
2013-07-19 07:42:00,73.0,69.6,30.11,NE,54,0.0,0.0,89,0.00,CLR,SCT,0.00,WeatherDisplay:10.37,2013-07-19 11:42:00,
2013-07-19 07:47:00,72.9,69.5,30.11,NE,54,0.0,0.0,89,0.00,CLR,SCT,0.00,WeatherDisplay:10.37,2013-07-19 11:47:00,
2013-07-19 07:52:00,73.2,69.8,30.10,NE,54,0.0,0.0,89,0.00,CLR,SCT,0.00,WeatherDisplay:10.37,2013-07-19 11:52:00,
2013-07-19 07:57:00,73.2,69.8,30.10,SSW,198,1.1,1.1,89,0.00,CLR,SCT,0.00,WeatherDisplay:10.37,2013-07-19 11:57:00,
2013-07-19 08:02:00,73.4,70.0,30.11,SSW,198,0.0,0.0,89,0.00,CLR,SCT,0.00,WeatherDisplay:10.37,2013-07-19 12:02:00,
2013-07-19 08:07:00,73.6,69.9,30.11,SSW,198,0.0,0.0,88,0.00,CLR,SCT,0.00,WeatherDisplay:10.37,2013-07-19 12:07:00,
2013-07-19 08:12:00,73.8,70.1,30.11,SSW,198,0.0,0.0,88,0.00,CLR,SCT,0.00,WeatherDisplay:10.37,2013-07-19 12:12:00,
2013-07-19 08:17:00,74.0,70.3,30.11,SSW,198,0.0,0.0,88,0.00,CLR,SCT,0.00,WeatherDisplay:10.37,2013-07-19 12:17:00,
2013-07-19 08:22:00,74.0,70.3,30.11,NE,47,0.0,0.0,88,0.00,CLR,SCT,0.00,WeatherDisplay:10.37,2013-07-19 12:22:00,
2013-07-19 08:27:00,74.2,70.5,30.11,East,89,1.1,1.1,88,0.00,CLR,SCT,0.00,WeatherDisplay:10.37,2013-07-19 12:27:00,
2013-07-19 08:32:00,74.2,70.5,30.11,ENE,68,2.3,2.3,88,0.00,CLR,SCT,0.00,WeatherDisplay:10.37,2013-07-19 12:32:00,
2013-07-19 08:37:00,74.4,70.7,30.11,ENE,72,1.1,1.1,88,0.00,CLR,SCT,0.00,WeatherDisplay:10.37,2013-07-19 12:37:00,
2013-07-19 08:42:00,74.5,70.7,30.11,ENE,61,1.1,1.1,88,0.00,CLR,SCT,0.00,WeatherDisplay:10.37,2013-07-19 12:42:00,
2013-07-19 08:47:00,74.6,70.8,30.11,ENE,61,0.0,0.0,88,0.00,CLR,SCT,0.00,WeatherDisplay:10.37,2013-07-19 12:47:00,
2013-07-19 08:52:00,74.8,71.0,30.11,ENE,61,0.0,0.0,88,0.00,CLR,SCT,0.00,WeatherDisplay:10.37,2013-07-19 12:52:00,
2013-07-19 08:57:00,75.0,71.2,30.11,ENE,61,0.0,0.0,88,0.00,CLR,SCT,0.00,WeatherDisplay:10.37,2013-07-19 12:57:00,
2013-07-19 09:02:00,75.2,71.1,30.11,ENE,61,0.0,0.0,87,0.00,CLR,SCT,0.00,WeatherDisplay:10.37,2013-07-19 13:02:00,
2013-07-19 09:07:00,75.5,71.4,30.11,East,96,2.5,2.5,87,0.00,CLR,SCT,0.00,WeatherDisplay:10.37,2013-07-19 13:07:00,
2013-07-19 09:12:00,75.7,71.6,30.11,East,79,2.3,2.3,87,0.00,CLR,SCT,0.00,WeatherDisplay:10.37,2013-07-19 13:12:00,
2013-07-19 09:17:00,75.9,71.4,30.11,NE,54,3.5,3.5,86,0.00,CLR,SCT,0.00,WeatherDisplay:10.37,2013-07-19 13:17:00,
2013-07-19 09:22:00,76.1,71.6,30.11,East,88,1.1,1.1,86,0.00,CLR,SCT,0.00,WeatherDisplay:10.37,2013-07-19 13:22:00,
2013-07-19 09:26:00,76.2,71.7,30.11,ENE,73,2.3,2.3,86,0.00,CLR,SCT,0.00,WeatherDisplay:10.37,2013-07-19 13:26:00,
2013-07-19 09:31:00,76.6,72.1,30.11,ENE,71,3.5,3.5,86,0.00,CLR,SCT,0.00,WeatherDisplay:10.37,2013-07-19 13:31:00,
2013-07-19 09:36:00,76.8,72.0,30.11,NE,49,0.0,0.0,85,0.00,CLR,SCT,0.00,WeatherDisplay:10.37,2013-07-19 13:36:00,
2013-07-19 09:41:00,77.1,71.9,30.11,ENE,68,1.1,1.1,84,0.00,CLR,SCT,0.00,WeatherDisplay:10.37,2013-07-19 13:41:00,
2013-07-19 09:46:00,77.3,72.1,30.11,NE,48,1.1,0.0,84,0.00,CLR,SCT,0.00,WeatherDisplay:10.37,2013-07-19 13:46:00,
2013-07-19 09:51:00,77.7,72.2,30.11,NE,51,1.1,0.0,83,0.00,CLR,SCT,0.00,WeatherDisplay:10.37,2013-07-19 13:51:00,
2013-07-19 09:56:00,77.9,72.4,30.11,NE,51,0.0,0.0,83,0.00,CLR,SCT,0.00,WeatherDisplay:10.37,2013-07-19 13:56:00,
2013-07-19 10:01:00,78.3,72.4,30.11,NE,51,0.0,0.0,82,0.00,CLR,SCT,0.00,WeatherDisplay:10.37,2013-07-19 14:01:00,
2013-07-19 10:06:00,78.5,72.2,30.11,NE,48,2.3,2.3,81,0.00,CLR,SCT,0.00,WeatherDisplay:10.37,2013-07-19 14:06:00,
2013-07-19 10:07:00,78.4,72.1,30.11,NE,48,2.3,2.3,81,0.00,CLR,SCT,0.00,WeatherDisplay:10.37,2013-07-19 14:07:00,
2013-07-19 10:12:00,79.1,72.4,30.11,East,96,1.1,0.0,80,0.00,CLR,SCT,0.00,WeatherDisplay:10.37,2013-07-19 14:12:00,
2013-07-19 10:17:00,79.4,72.0,30.11,ESE,107,1.2,1.2,78,0.00,CLR,SCT,0.00,WeatherDisplay:10.37,2013-07-19 14:17:00,
2013-07-19 10:22:00,79.9,72.1,30.11,ENE,78,2.6,2.6,77,0.00,CLR,SCT,0.00,WeatherDisplay:10.37,2013-07-19 14:22:00,
2013-07-19 10:27:00,80.2,72.0,30.11,ESE,114,2.3,0.0,76,0.00,CLR,SCT,0.00,WeatherDisplay:10.37,2013-07-19 14:27:00,
2013-07-19 10:32:00,80.7,72.5,30.11,ENE,66,0.0,0.0,76,0.00,CLR,SCT,0.00,WeatherDisplay:10.37,2013-07-19 14:32:00,
2013-07-19 10:37:00,81.1,71.7,30.11,ENE,66,0.0,0.0,73,0.00,CLR,SCT,0.00,WeatherDisplay:10.37,2013-07-19 14:37:00,
2013-07-19 10:42:00,81.4,71.9,30.11,East,86,0.0,0.0,73,0.00,CLR,SCT,0.00,WeatherDisplay:10.37,2013-07-19 14:42:00,
2013-07-19 10:47:00,82.0,72.5,30.11,ESE,110,2.3,2.3,73,0.00,CLR,SCT,0.00,WeatherDisplay:10.37,2013-07-19 14:47:00,
2013-07-19 10:52:00,82.3,71.6,30.11,ESE,110,0.0,0.0,70,0.00,CLR,SCT,0.00,WeatherDisplay:10.37,2013-07-19 14:52:00,
2013-07-19 10:57:00,82.7,72.4,30.11,East,79,2.3,2.3,71,0.00,CLR,SCT,0.00,WeatherDisplay:10.37,2013-07-19 14:57:00,
2013-07-19 11:02:00,83.1,71.9,30.11,East,95,0.0,0.0,69,0.00,CLR,SCT,0.00,WeatherDisplay:10.37,2013-07-19 15:02:00,
2013-07-19 11:07:00,83.4,72.2,30.11,East,95,0.0,0.0,69,0.00,CLR,SCT,0.00,WeatherDisplay:10.37,2013-07-19 15:07:00,
2013-07-19 11:12:00,83.8,72.1,30.11,NNW,335,1.8,1.8,68,0.00,CLR,SCT,0.00,WeatherDisplay:10.37,2013-07-19 15:12:00,
2013-07-19 11:17:00,84.0,71.0,30.11,SSE,168,1.1,0.0,65,0.00,CLR,SCT,0.00,WeatherDisplay:10.37,2013-07-19 15:17:00,
2013-07-19 11:22:00,84.3,71.3,30.11,SSE,168,0.0,0.0,65,0.00,CLR,SCT,0.00,WeatherDisplay:10.37,2013-07-19 15:22:00,
2013-07-19 11:27:00,84.8,72.2,30.10,SSE,168,0.0,0.0,66,0.00,CLR,SCT,0.00,WeatherDisplay:10.37,2013-07-19 15:27:00,
2013-07-19 11:32:00,85.2,71.2,30.10,NE,37,1.1,1.1,63,0.00,CLR,SCT,0.00,WeatherDisplay:10.37,2013-07-19 15:32:00,
2013-07-19 11:37:00,85.5,71.5,30.10,ENE,64,0.0,0.0,63,0.00,CLR,SCT,0.00,WeatherDisplay:10.37,2013-07-19 15:37:00,
2013-07-19 11:42:00,85.7,71.7,30.10,ESE,103,0.0,0.0,63,0.00,CLR,SCT,0.00,WeatherDisplay:10.37,2013-07-19 15:42:00,
2013-07-19 11:47:00,86.0,71.5,30.10,ESE,103,0.0,0.0,62,0.00,CLR,SCT,0.00,WeatherDisplay:10.37,2013-07-19 15:47:00,
2013-07-19 11:52:00,86.5,72.0,30.10,NW,320,2.3,2.3,62,0.00,CLR,SCT,0.00,WeatherDisplay:10.37,2013-07-19 15:52:00,
2013-07-19 11:57:00,87.0,72.0,30.10,South,185,1.2,1.3,61,0.00,CLR,SCT,0.00,WeatherDisplay:10.37,2013-07-19 15:57:00,
2013-07-19 12:02:00,87.0,71.5,30.10,SSW,195,1.1,1.1,60,0.00,CLR,SCT,0.00,WeatherDisplay:10.37,2013-07-19 16:02:00,
2013-07-19 12:07:00,86.7,70.7,30.10,SSE,147,0.0,0.0,59,0.00,CLR,SCT,0.00,WeatherDisplay:10.37,2013-07-19 16:07:00,
2013-07-19 12:12:00,86.7,71.7,30.09,SSE,167,3.5,3.5,61,0.00,CLR,SCT,0.00,WeatherDisplay:10.37,2013-07-19 16:12:00,
2013-07-19 12:17:00,86.7,71.2,30.09,South,181,0.0,0.0,60,0.00,CLR,SCT,0.00,WeatherDisplay:10.37,2013-07-19 16:17:00,
2013-07-19 12:22:00,86.8,71.8,30.09,South,181,0.0,0.0,61,0.00,CLR,SCT,0.00,WeatherDisplay:10.37,2013-07-19 16:22:00,
2013-07-19 12:27:00,87.5,72.9,30.09,ENE,59,2.3,2.3,62,0.00,CLR,SCT,0.00,WeatherDisplay:10.37,2013-07-19 16:27:00,
2013-07-19 12:32:00,87.8,72.2,30.09,NNE,21,3.5,3.5,60,0.00,CLR,SCT,0.00,WeatherDisplay:10.37,2013-07-19 16:32:00,
2013-07-19 12:37:00,87.5,71.4,30.09,NNE,17,0.0,0.0,59,0.00,CLR,SCT,0.00,WeatherDisplay:10.37,2013-07-19 16:37:00,
2013-07-19 12:42:00,86.9,71.4,30.09,NNE,17,0.0,0.0,60,0.00,CLR,SCT,0.00,WeatherDisplay:10.37,2013-07-19 16:42:00,
2013-07-19 12:47:00,86.5,72.0,30.09,NNE,17,0.0,0.0,62,0.00,CLR,SCT,0.00,WeatherDisplay:10.37,2013-07-19 16:47:00,
2013-07-19 12:52:00,86.1,71.1,30.08,SE,141,0.0,0.0,61,0.00,CLR,SCT,0.00,WeatherDisplay:10.37,2013-07-19 16:52:00,
2013-07-19 12:57:00,85.9,71.9,30.08,SSW,206,2.3,2.3,63,0.00,CLR,SCT,0.00,WeatherDisplay:10.37,2013-07-19 16:57:00,
2013-07-19 13:02:00,85.4,70.9,30.08,SW,215,0.5,0.5,62,0.00,CLR,SCT,0.00,WeatherDisplay:10.37,2013-07-19 17:02:00,
2013-07-19 13:07:00,85.4,70.9,30.08,SSE,155,3.5,3.5,62,0.00,CLR,SCT,0.00,WeatherDisplay:10.37,2013-07-19 17:07:00,
2013-07-19 13:12:00,85.3,70.8,30.08,SE,126,0.0,0.0,62,0.00,CLR,SCT,0.00,WeatherDisplay:10.37,2013-07-19 17:12:00,
2013-07-19 13:17:00,85.3,70.8,30.08,SE,126,0.0,0.0,62,0.00,CLR,SCT,0.00,WeatherDisplay:10.37,2013-07-19 17:17:00,
2013-07-19 13:22:00,86.1,71.1,30.08,SE,128,2.3,2.3,61,0.00,CLR,SCT,0.00,WeatherDisplay:10.37,2013-07-19 17:22:00,
2013-07-19 13:27:00,86.4,71.9,30.08,SE,128,0.0,0.0,62,0.00,CLR,SCT,0.00,WeatherDisplay:10.37,2013-07-19 17:27:00,
2013-07-19 13:32:00,86.3,71.8,30.07,SSE,158,2.3,2.3,62,0.00,CLR,SCT,0.00,WeatherDisplay:10.37,2013-07-19 17:32:00,
2013-07-19 13:37:00,85.9,71.9,30.07,SSE,158,0.0,0.0,63,0.00,CLR,SCT,0.00,WeatherDisplay:10.37,2013-07-19 17:37:00,
2013-07-19 13:42:00,86.5,72.4,30.06,ESE,112,4.6,4.6,63,0.00,CLR,SCT,0.00,WeatherDisplay:10.37,2013-07-19 17:42:00,
2013-07-19 13:47:00,86.9,71.4,30.06,NE,54,0.0,0.0,60,0.00,CLR,SCT,0.00,WeatherDisplay:10.37,2013-07-19 17:47:00,
2013-07-19 13:52:00,87.4,72.8,30.05,SE,134,5.8,5.8,62,0.00,CLR,SCT,0.00,WeatherDisplay:10.37,2013-07-19 17:52:00,
2013-07-19 13:57:00,87.8,72.7,30.06,SSE,168,6.9,6.9,61,0.00,CLR,SCT,0.00,WeatherDisplay:10.37,2013-07-19 17:57:00,
2013-07-19 14:02:00,88.2,73.1,30.05,South,178,7.3,7.3,61,0.00,SCT,,0.00,WeatherDisplay:10.37,2013-07-19 18:02:00,
2013-07-19 14:07:00,88.6,72.0,30.05,South,176,6.9,6.9,58,0.00,SCT,,0.00,WeatherDisplay:10.37,2013-07-19 18:07:00,
2013-07-19 14:12:00,88.5,70.3,30.05,South,191,6.9,6.9,55,0.00,SCT,,0.00,WeatherDisplay:10.37,2013-07-19 18:12:00,
2013-07-19 14:17:00,88.8,70.6,30.05,South,186,4.6,4.6,55,0.00,SCT,,0.00,WeatherDisplay:10.37,2013-07-19 18:17:00,
2013-07-19 14:22:00,89.1,69.2,30.05,South,191,10.4,10.4,52,0.00,SCT,,0.00,WeatherDisplay:10.37,2013-07-19 18:22:00,
2013-07-19 14:27:00,89.6,70.2,30.05,South,185,3.5,3.5,53,0.00,SCT,,0.00,WeatherDisplay:10.37,2013-07-19 18:27:00,
2013-07-19 14:32:00,89.6,70.2,30.05,South,174,9.2,9.2,53,0.00,SCT,,0.00,WeatherDisplay:10.37,2013-07-19 18:32:00,
2013-07-19 14:37:00,88.5,71.4,30.04,SSE,164,18.2,18.2,57,0.00,SCT,,0.00,WeatherDisplay:10.37,2013-07-19 18:37:00,
2013-07-19 14:42:00,86.7,71.7,30.04,SSE,152,16.1,16.1,61,0.00,SCT,,0.00,WeatherDisplay:10.37,2013-07-19 18:42:00,
2013-07-19 14:47:00,85.3,71.8,30.04,SSE,155,17.3,17.3,64,0.00,SCT,,0.00,WeatherDisplay:10.37,2013-07-19 18:47:00,
2013-07-19 14:52:00,84.6,72.0,30.03,South,172,15.0,15.0,66,0.00,SCT,,0.00,WeatherDisplay:10.37,2013-07-19 18:52:00,
2013-07-19 14:57:00,83.9,71.8,30.03,SSE,154,18.4,18.4,67,0.00,SCT,,0.00,WeatherDisplay:10.37,2013-07-19 18:57:00,
2013-07-19 15:02:00,83.5,71.9,30.03,South,172,15.0,15.0,68,0.00,SCT,,0.00,WeatherDisplay:10.37,2013-07-19 19:02:00,
2013-07-19 15:07:00,83.4,72.2,30.03,SSE,165,15.0,15.0,69,0.00,SCT,,0.00,WeatherDisplay:10.37,2013-07-19 19:07:00,
2013-07-19 15:12:00,83.7,72.9,30.02,SSW,202,10.4,10.4,70,0.00,SCT,,0.00,WeatherDisplay:10.37,2013-07-19 19:12:00,
2013-07-19 15:17:00,84.4,72.3,30.02,South,172,13.8,13.8,67,0.00,SCT,,0.00,WeatherDisplay:10.37,2013-07-19 19:17:00,
2013-07-19 15:22:00,85.3,73.1,30.02,SSW,206,12.7,12.7,67,0.00,SCT,,0.00,WeatherDisplay:10.37,2013-07-19 19:22:00,
2013-07-19 15:27:00,86.1,72.5,30.02,South,172,14.7,14.7,64,0.00,SCT,,0.00,WeatherDisplay:10.37,2013-07-19 19:27:00,
2013-07-19 15:32:00,86.2,72.2,30.01,South,189,15.0,15.0,63,0.00,SCT,,0.00,WeatherDisplay:10.37,2013-07-19 19:32:00,
2013-07-19 15:37:00,86.2,71.7,30.02,South,169,16.1,16.1,62,0.00,SCT,,0.00,WeatherDisplay:10.37,2013-07-19 19:37:00,
2013-07-19 15:42:00,86.2,71.7,30.02,South,186,11.5,11.5,62,0.00,SCT,,0.00,WeatherDisplay:10.37,2013-07-19 19:42:00,
2013-07-19 15:47:00,86.0,71.0,30.01,SSE,151,15.0,15.0,61,0.00,SCT,,0.00,WeatherDisplay:10.37,2013-07-19 19:47:00,
2013-07-19 15:52:00,86.0,71.5,30.01,SSW,209,15.0,15.0,62,0.00,SCT,,0.00,WeatherDisplay:10.37,2013-07-19 19:52:00,
2013-07-19 15:57:00,86.1,71.6,30.01,SSE,168,16.1,16.1,62,0.00,SCT,,0.00,WeatherDisplay:10.37,2013-07-19 19:57:00,
2013-07-19 16:02:00,86.1,71.6,30.01,SSE,167,17.3,17.3,62,0.00,SCT,,0.00,WeatherDisplay:10.37,2013-07-19 20:02:00,
2013-07-19 16:07:00,86.0,71.5,30.01,South,174,13.8,13.8,62,0.00,SCT,,0.00,WeatherDisplay:10.37,2013-07-19 20:07:00,
2013-07-19 16:12:00,86.1,72.5,30.01,South,178,11.9,11.9,64,0.00,SCT,,0.00,WeatherDisplay:10.37,2013-07-19 20:12:00,
2013-07-19 16:17:00,86.3,72.7,30.01,South,182,12.7,12.7,64,0.00,SCT,,0.00,WeatherDisplay:10.37,2013-07-19 20:17:00,
2013-07-19 16:22:00,85.7,72.2,30.01,South,176,13.8,13.8,64,0.00,SCT,,0.00,WeatherDisplay:10.37,2013-07-19 20:22:00,
2013-07-19 16:27:00,84.8,72.2,30.00,SSE,168,16.1,16.1,66,0.00,SCT,,0.00,WeatherDisplay:10.37,2013-07-19 20:27:00,
2013-07-19 16:32:00,84.0,71.5,30.00,South,184,16.1,16.1,66,0.00,SCT,,0.00,WeatherDisplay:10.37,2013-07-19 20:32:00,
2013-07-19 16:37:00,83.4,71.3,30.00,South,181,11.5,11.5,67,0.00,SCT,,0.00,WeatherDisplay:10.37,2013-07-19 20:37:00,
2013-07-19 16:42:00,83.1,71.5,30.00,SW,233,8.1,8.1,68,0.00,SCT,,0.00,WeatherDisplay:10.37,2013-07-19 20:42:00,
2013-07-19 16:47:00,82.8,71.2,30.01,SSE,165,9.2,9.2,68,0.00,SCT,,0.00,WeatherDisplay:10.37,2013-07-19 20:47:00,
2013-07-19 16:52:00,82.6,71.9,30.01,South,182,3.5,3.8,70,0.00,SCT,,0.00,WeatherDisplay:10.37,2013-07-19 20:52:00,
2013-07-19 16:57:00,82.3,72.0,30.00,South,169,9.2,9.2,71,0.00,SCT,,0.00,WeatherDisplay:10.37,2013-07-19 20:57:00,
2013-07-19 17:02:00,81.6,71.7,30.01,South,188,9.2,9.2,72,0.00,BKN,SCT,0.00,WeatherDisplay:10.37,2013-07-19 21:02:00,
2013-07-19 17:07:00,81.5,71.2,30.02,SSE,158,6.9,6.9,71,0.00,BKN,SCT,0.00,WeatherDisplay:10.37,2013-07-19 21:07:00,
2013-07-19 17:12:00,81.5,71.6,30.02,SSE,161,4.6,4.6,72,0.00,BKN,SCT,0.00,WeatherDisplay:10.37,2013-07-19 21:12:00,
2013-07-19 17:17:00,81.3,71.4,30.01,South,174,6.9,6.9,72,0.00,BKN,SCT,0.00,WeatherDisplay:10.37,2013-07-19 21:17:00,
2013-07-19 17:22:00,81.3,71.4,30.01,SSE,162,9.2,9.2,72,0.00,BKN,SCT,0.00,WeatherDisplay:10.37,2013-07-19 21:22:00,
2013-07-19 17:27:00,81.4,71.9,30.01,South,169,6.9,6.9,73,0.00,BKN,SCT,0.00,WeatherDisplay:10.37,2013-07-19 21:27:00,
2013-07-19 17:32:00,81.2,71.8,30.01,SSW,200,9.2,9.2,73,0.00,BKN,SCT,0.00,WeatherDisplay:10.37,2013-07-19 21:32:00,
2013-07-19 17:37:00,81.2,71.8,30.01,SSE,164,10.4,10.4,73,0.00,BKN,SCT,0.00,WeatherDisplay:10.37,2013-07-19 21:37:00,
2013-07-19 17:42:00,81.0,72.0,30.01,South,175,8.1,8.1,74,0.00,BKN,SCT,0.00,WeatherDisplay:10.37,2013-07-19 21:42:00,
2013-07-19 17:47:00,80.8,72.2,30.01,South,188,7.4,7.4,75,0.00,BKN,SCT,0.00,WeatherDisplay:10.37,2013-07-19 21:47:00,
2013-07-19 17:52:00,80.6,72.0,30.00,SW,215,8.1,8.1,75,0.00,BKN,SCT,0.00,WeatherDisplay:10.37,2013-07-19 21:52:00,
2013-07-19 17:57:00,80.6,72.4,30.00,SSE,168,9.2,9.2,76,0.00,BKN,SCT,0.00,WeatherDisplay:10.37,2013-07-19 21:57:00,
2013-07-19 18:02:00,80.5,72.3,30.01,South,172,6.9,6.9,76,0.00,SCT,,0.00,WeatherDisplay:10.37,2013-07-19 22:02:00,
2013-07-19 18:07:00,80.5,72.3,30.01,SSW,205,6.9,6.9,76,0.00,SCT,,0.00,WeatherDisplay:10.37,2013-07-19 22:07:00,
2013-07-19 18:12:00,80.3,72.1,30.01,SSE,161,9.2,9.2,76,0.00,SCT,,0.00,WeatherDisplay:10.37,2013-07-19 22:12:00,
2013-07-19 18:17:00,80.5,72.3,30.01,SW,233,8.1,8.1,76,0.00,SCT,,0.00,WeatherDisplay:10.37,2013-07-19 22:17:00,
2013-07-19 18:22:00,80.5,72.7,30.01,South,184,9.2,9.2,77,0.00,SCT,,0.00,WeatherDisplay:10.37,2013-07-19 22:22:00,
2013-07-19 18:27:00,80.4,72.6,30.00,SSW,196,8.1,8.1,77,0.00,SCT,,0.00,WeatherDisplay:10.37,2013-07-19 22:27:00,
2013-07-19 18:32:00,80.7,72.9,30.01,SW,230,5.8,6.0,77,0.00,SCT,,0.00,WeatherDisplay:10.37,2013-07-19 22:32:00,
2013-07-19 18:37:00,80.6,72.4,30.01,South,178,9.2,9.2,76,0.00,SCT,,0.00,WeatherDisplay:10.37,2013-07-19 22:37:00,
2013-07-19 18:42:00,80.7,72.5,30.01,South,181,8.1,8.1,76,0.00,SCT,,0.00,WeatherDisplay:10.37,2013-07-19 22:42:00,
2013-07-19 18:47:00,80.7,72.1,30.02,WSW,256,2.3,2.3,75,0.00,SCT,,0.00,WeatherDisplay:10.37,2013-07-19 22:47:00,
2013-07-19 18:52:00,80.9,72.3,30.02,SSW,203,6.9,6.9,75,0.00,SCT,,0.00,WeatherDisplay:10.37,2013-07-19 22:52:00,
2013-07-19 18:58:00,80.9,72.3,30.03,SW,216,3.5,3.5,75,0.00,SCT,,0.00,WeatherDisplay:10.37,2013-07-19 22:58:00,
2013-07-19 19:03:00,81.0,72.4,30.03,South,179,5.8,5.8,75,0.00,FEW,SCT,0.00,WeatherDisplay:10.37,2013-07-19 23:03:00,
2013-07-19 19:08:00,81.0,72.4,30.02,SW,220,3.5,3.5,75,0.00,FEW,SCT,0.00,WeatherDisplay:10.37,2013-07-19 23:08:00,
2013-07-19 19:13:00,80.9,72.7,30.02,SSE,167,0.0,0.0,76,0.00,FEW,SCT,0.00,WeatherDisplay:10.37,2013-07-19 23:13:00,
2013-07-19 19:18:00,81.0,72.8,30.02,SSW,198,0.0,0.0,76,0.00,FEW,SCT,0.00,WeatherDisplay:10.37,2013-07-19 23:18:00,
2013-07-19 19:23:00,81.0,72.8,30.02,South,174,2.4,2.4,76,0.00,FEW,SCT,0.00,WeatherDisplay:10.37,2013-07-19 23:23:00,
2013-07-19 19:28:00,80.9,72.7,30.02,SSE,157,2.3,0.0,76,0.00,FEW,SCT,0.00,WeatherDisplay:10.37,2013-07-19 23:28:00,
2013-07-19 19:33:00,80.9,72.7,30.02,WSW,258,2.3,2.3,76,0.00,FEW,SCT,0.00,WeatherDisplay:10.37,2013-07-19 23:33:00,
2013-07-19 19:38:00,80.8,72.2,30.02,SW,223,5.8,5.8,75,0.00,FEW,SCT,0.00,WeatherDisplay:10.37,2013-07-19 23:38:00,
2013-07-19 19:43:00,80.8,71.0,30.02,WSW,243,6.9,6.9,72,0.00,FEW,SCT,0.00,WeatherDisplay:10.37,2013-07-19 23:43:00,
2013-07-19 19:48:00,80.5,69.8,30.01,SSE,154,9.2,9.2,70,0.00,FEW,SCT,0.00,WeatherDisplay:10.37,2013-07-19 23:48:00,
2013-07-19 19:53:00,80.3,69.2,30.01,WNW,287,16.1,16.1,69,0.00,FEW,SCT,0.00,WeatherDisplay:10.37,2013-07-19 23:53:00,
2013-07-19 19:58:00,80.5,69.0,30.01,WSW,248,10.4,10.4,68,0.00,FEW,SCT,0.00,WeatherDisplay:10.37,2013-07-19 23:58:00,
2013-07-19 20:03:00,80.2,68.7,30.01,WNW,295,6.9,6.9,68,0.00,SCT,,0.00,WeatherDisplay:10.37,2013-07-20 00:03:00,
2013-07-19 20:08:00,80.2,69.1,30.01,NW,326,0.5,1.0,69,0.00,SCT,,0.00,WeatherDisplay:10.37,2013-07-20 00:08:00,
2013-07-19 20:13:00,80.1,69.0,30.01,North,6,2.3,2.3,69,0.00,SCT,,0.00,WeatherDisplay:10.37,2013-07-20 00:13:00,
2013-07-19 20:18:00,80.1,69.5,30.00,North,6,0.0,0.0,70,0.00,SCT,,0.00,WeatherDisplay:10.37,2013-07-20 00:18:00,
2013-07-19 20:23:00,79.9,69.3,30.00,NE,35,1.1,0.0,70,0.00,SCT,,0.00,WeatherDisplay:10.37,2013-07-20 00:23:00,
2013-07-19 20:28:00,79.7,69.1,30.00,West,271,4.7,4.7,70,0.00,SCT,,0.00,WeatherDisplay:10.37,2013-07-20 00:28:00,
2013-07-19 20:33:00,79.6,69.0,30.01,SSE,168,1.1,1.1,70,0.00,SCT,,0.00,WeatherDisplay:10.37,2013-07-20 00:33:00,
2013-07-19 20:38:00,79.4,69.2,30.01,WSW,251,2.3,2.3,71,0.00,SCT,,0.00,WeatherDisplay:10.37,2013-07-20 00:38:00,
2013-07-19 20:43:00,79.3,69.1,30.01,WNW,287,2.3,2.3,71,0.00,SCT,,0.00,WeatherDisplay:10.37,2013-07-20 00:43:00,
2013-07-19 20:48:00,79.1,69.3,30.01,South,186,2.3,2.3,72,0.00,SCT,,0.00,WeatherDisplay:10.37,2013-07-20 00:48:00,
2013-07-19 20:53:00,79.1,69.3,30.01,SSW,195,2.3,2.3,72,0.00,SCT,,0.00,WeatherDisplay:10.37,2013-07-20 00:53:00,
2013-07-19 20:58:00,78.7,68.9,30.01,SSW,209,2.3,2.3,72,0.00,SCT,,0.00,WeatherDisplay:10.37,2013-07-20 00:58:00,
2013-07-19 21:03:00,78.6,68.9,30.02,SW,233,0.0,0.0,72,0.00,SCT,,0.00,WeatherDisplay:10.37,2013-07-20 01:03:00,
2013-07-19 21:08:00,78.5,68.3,30.03,NW,312,1.1,1.1,71,0.00,SCT,,0.00,WeatherDisplay:10.37,2013-07-20 01:08:00,
2013-07-19 21:13:00,78.5,67.9,30.03,SW,229,5.8,5.8,70,0.00,SCT,,0.00,WeatherDisplay:10.37,2013-07-20 01:13:00,
2013-07-19 21:18:00,78.3,67.7,30.03,WNW,285,3.0,3.0,70,0.00,SCT,,0.00,WeatherDisplay:10.37,2013-07-20 01:18:00,
2013-07-19 21:23:00,78.2,67.2,30.03,WSW,240,3.5,3.5,69,0.00,SCT,,0.00,WeatherDisplay:10.37,2013-07-20 01:23:00,
2013-07-19 21:28:00,78.2,67.2,30.03,East,80,2.3,2.3,69,0.00,SCT,,0.00,WeatherDisplay:10.37,2013-07-20 01:28:00,
2013-07-19 21:33:00,78.5,67.5,30.04,East,80,0.0,0.0,69,0.00,SCT,,0.00,WeatherDisplay:10.37,2013-07-20 01:33:00,
2013-07-19 21:38:00,78.4,67.8,30.04,SSW,199,3.5,3.5,70,0.00,SCT,,0.00,WeatherDisplay:10.37,2013-07-20 01:38:00,
2013-07-19 21:43:00,78.1,67.6,30.04,West,275,3.5,3.5,70,0.00,SCT,,0.00,WeatherDisplay:10.37,2013-07-20 01:43:00,
2013-07-19 21:48:00,78.2,67.6,30.05,SW,219,2.3,2.3,70,0.00,SCT,,0.00,WeatherDisplay:10.37,2013-07-20 01:48:00,
2013-07-19 21:53:00,78.1,67.6,30.05,SW,230,2.3,2.3,70,0.00,SCT,,0.00,WeatherDisplay:10.37,2013-07-20 01:53:00,
2013-07-19 21:58:00,78.1,67.6,30.05,WSW,257,0.0,0.0,70,0.00,SCT,,0.00,WeatherDisplay:10.37,2013-07-20 01:58:00,
2013-07-19 22:03:00,78.1,68.0,30.05,WSW,257,0.0,0.0,71,0.00,OVC,SCT,0.00,WeatherDisplay:10.37,2013-07-20 02:03:00,
2013-07-19 22:08:00,78.3,68.2,30.05,WSW,257,0.0,0.0,71,0.00,OVC,SCT,0.00,WeatherDisplay:10.37,2013-07-20 02:08:00,
2013-07-19 22:13:00,78.3,68.6,30.05,WSW,257,0.0,0.0,72,0.00,OVC,SCT,0.00,WeatherDisplay:10.37,2013-07-20 02:13:00,
2013-07-19 22:18:00,78.2,68.1,30.05,WSW,257,0.0,0.0,71,0.00,OVC,SCT,0.00,WeatherDisplay:10.37,2013-07-20 02:18:00,
2013-07-19 22:23:00,78.0,67.9,30.05,WSW,257,0.0,0.0,71,0.00,OVC,SCT,0.00,WeatherDisplay:10.37,2013-07-20 02:23:00,
2013-07-19 22:28:00,77.9,67.8,30.05,SSE,150,1.1,1.1,71,0.00,OVC,SCT,0.00,WeatherDisplay:10.37,2013-07-20 02:28:00,
2013-07-19 22:33:00,77.6,67.9,30.05,ESE,109,0.0,0.0,72,0.00,OVC,SCT,0.00,WeatherDisplay:10.37,2013-07-20 02:33:00,
2013-07-19 22:38:00,77.5,67.8,30.04,SSE,161,2.3,2.3,72,0.00,OVC,SCT,0.00,WeatherDisplay:10.37,2013-07-20 02:38:00,
2013-07-19 22:43:00,77.2,67.5,30.04,SSE,151,4.6,4.6,72,0.00,OVC,SCT,0.00,WeatherDisplay:10.37,2013-07-20 02:43:00,
2013-07-19 22:48:00,77.3,67.6,30.04,South,181,3.5,3.5,72,0.00,OVC,SCT,0.00,WeatherDisplay:10.37,2013-07-20 02:48:00,
2013-07-19 22:53:00,77.2,67.9,30.04,SSW,196,4.6,4.6,73,0.00,OVC,SCT,0.00,WeatherDisplay:10.37,2013-07-20 02:53:00,
2013-07-19 22:58:00,77.2,67.9,30.04,South,178,5.8,5.8,73,0.00,OVC,SCT,0.00,WeatherDisplay:10.37,2013-07-20 02:58:00,
2013-07-19 23:03:00,77.5,68.2,30.04,South,174,3.5,3.5,73,0.00,SCT,,0.00,WeatherDisplay:10.37,2013-07-20 03:03:00,
2013-07-19 23:08:00,77.3,68.0,30.04,SSW,208,1.1,1.1,73,0.00,SCT,,0.00,WeatherDisplay:10.37,2013-07-20 03:08:00,
2013-07-19 23:13:00,77.5,68.6,30.04,SSW,208,0.0,0.0,74,0.00,SCT,,0.00,WeatherDisplay:10.37,2013-07-20 03:13:00,
2013-07-19 23:18:00,77.6,68.7,30.03,South,186,3.5,3.5,74,0.00,SCT,,0.00,WeatherDisplay:10.37,2013-07-20 03:18:00,
2013-07-19 23:23:00,77.5,68.6,30.03,SW,230,0.0,0.0,74,0.00,SCT,,0.00,WeatherDisplay:10.37,2013-07-20 03:23:00,
2013-07-19 23:28:00,77.5,68.6,30.03,West,268,4.6,4.6,74,0.00,SCT,,0.00,WeatherDisplay:10.37,2013-07-20 03:28:00,
2013-07-19 23:33:00,77.6,68.7,30.03,West,265,5.8,5.8,74,0.00,SCT,,0.00,WeatherDisplay:10.37,2013-07-20 03:33:00,
2013-07-19 23:38:00,77.5,68.6,30.03,SSW,206,6.9,6.9,74,0.00,SCT,,0.00,WeatherDisplay:10.37,2013-07-20 03:38:00,
2013-07-19 23:43:00,77.6,68.7,30.03,South,174,6.9,6.9,74,0.00,SCT,,0.00,WeatherDisplay:10.37,2013-07-20 03:43:00,
2013-07-19 23:48:00,77.6,68.7,30.03,SE,127,1.1,1.1,74,0.00,SCT,,0.00,WeatherDisplay:10.37,2013-07-20 03:48:00,
2013-07-19 23:53:00,77.6,68.7,30.02,SE,126,4.6,4.6,74,0.00,SCT,,0.00,WeatherDisplay:10.37,2013-07-20 03:53:00,
2013-07-19 23:58:00,77.7,68.8,30.02,ESE,121,0.0,0.0,74,0.00,SCT,,0.00,WeatherDisplay:10.37,2013-07-20 03:58:00,